sensor_id;sensor_type;location;lat;lon;timestamp;temperature;humidity
20141;DHT22;10231;47.702;9.826;2022-07-06T00:01:07;18.50;99.90
20141;DHT22;10231;47.702;9.826;2022-07-06T00:03:33;18.50;99.90
20141;DHT22;10231;47.702;9.826;2022-07-06T00:05:59;18.50;99.90
20141;DHT22;10231;47.702;9.826;2022-07-06T00:08:24;18.50;99.90
20141;DHT22;10231;47.702;9.826;2022-07-06T00:10:50;18.40;99.90
20141;DHT22;10231;47.702;9.826;2022-07-06T00:13:15;18.40;99.90
20141;DHT22;10231;47.702;9.826;2022-07-06T00:15:41;18.40;99.90
20141;DHT22;10231;47.702;9.826;2022-07-06T00:18:07;18.20;99.90
20141;DHT22;10231;47.702;9.826;2022-07-06T00:20:32;18.10;99.90
20141;DHT22;10231;47.702;9.826;2022-07-06T00:22:58;18.00;99.90
20141;DHT22;10231;47.702;9.826;2022-07-06T00:25:23;17.90;99.90
20141;DHT22;10231;47.702;9.826;2022-07-06T00:27:49;17.90;99.90
20141;DHT22;10231;47.702;9.826;2022-07-06T00:30:15;17.90;99.90
20141;DHT22;10231;47.702;9.826;2022-07-06T00:32:40;17.90;99.90
20141;DHT22;10231;47.702;9.826;2022-07-06T00:35:06;17.90;99.90
20141;DHT22;10231;47.702;9.826;2022-07-06T00:37:32;17.80;99.90
20141;DHT22;10231;47.702;9.826;2022-07-06T00:39:58;17.80;99.90
20141;DHT22;10231;47.702;9.826;2022-07-06T00:42:23;17.70;99.90
20141;DHT22;10231;47.702;9.826;2022-07-06T00:44:50;17.70;99.90
20141;DHT22;10231;47.702;9.826;2022-07-06T00:47:15;17.70;99.90
20141;DHT22;10231;47.702;9.826;2022-07-06T00:49:41;17.60;99.90
20141;DHT22;10231;47.702;9.826;2022-07-06T00:52:25;17.60;99.90
20141;DHT22;10231;47.702;9.826;2022-07-06T00:54:51;17.60;99.90
20141;DHT22;10231;47.702;9.826;2022-07-06T00:57:17;17.60;99.90
20141;DHT22;10231;47.702;9.826;2022-07-06T00:59:43;17.50;99.90
20141;DHT22;10231;47.702;9.826;2022-07-06T01:02:09;17.50;99.90
20141;DHT22;10231;47.702;9.826;2022-07-06T01:04:34;17.50;99.90
20141;DHT22;10231;47.702;9.826;2022-07-06T01:07:00;17.40;99.90
20141;DHT22;10231;47.702;9.826;2022-07-06T01:09:27;17.40;99.90
20141;DHT22;10231;47.702;9.826;2022-07-06T01:11:52;17.50;99.90
20141;DHT22;10231;47.702;9.826;2022-07-06T01:14:20;17.40;99.90
20141;DHT22;10231;47.702;9.826;2022-07-06T01:16:45;17.40;99.90
20141;DHT22;10231;47.702;9.826;2022-07-06T01:19:11;17.20;99.90
20141;DHT22;10231;47.702;9.826;2022-07-06T01:21:39;17.10;99.90
20141;DHT22;10231;47.702;9.826;2022-07-06T01:24:05;17.20;99.90
20141;DHT22;10231;47.702;9.826;2022-07-06T01:26:31;17.20;99.90
20141;DHT22;10231;47.702;9.826;2022-07-06T01:28:57;17.10;99.90
20141;DHT22;10231;47.702;9.826;2022-07-06T01:31:24;17.00;99.90
20141;DHT22;10231;47.702;9.826;2022-07-06T01:33:55;17.00;99.90
20141;DHT22;10231;47.702;9.826;2022-07-06T01:36:21;16.90;99.90
20141;DHT22;10231;47.702;9.826;2022-07-06T01:38:49;16.80;99.90
20141;DHT22;10231;47.702;9.826;2022-07-06T01:41:15;16.80;99.90
20141;DHT22;10231;47.702;9.826;2022-07-06T01:43:41;16.80;99.90
20141;DHT22;10231;47.702;9.826;2022-07-06T01:46:06;16.80;99.90
20141;DHT22;10231;47.702;9.826;2022-07-06T01:48:32;16.80;99.90
20141;DHT22;10231;47.702;9.826;2022-07-06T01:50:58;16.70;99.90
20141;DHT22;10231;47.702;9.826;2022-07-06T01:53:23;16.60;99.90
20141;DHT22;10231;47.702;9.826;2022-07-06T01:55:49;16.50;99.90
20141;DHT22;10231;47.702;9.826;2022-07-06T01:58:15;16.60;99.90
20141;DHT22;10231;47.702;9.826;2022-07-06T02:00:41;16.50;99.90
20141;DHT22;10231;47.702;9.826;2022-07-06T02:03:06;16.50;99.90
20141;DHT22;10231;47.702;9.826;2022-07-06T02:05:32;16.50;99.90
20141;DHT22;10231;47.702;9.826;2022-07-06T02:07:57;16.60;99.90
20141;DHT22;10231;47.702;9.826;2022-07-06T02:10:23;16.50;99.90
20141;DHT22;10231;47.702;9.826;2022-07-06T02:12:49;16.50;99.90
20141;DHT22;10231;47.702;9.826;2022-07-06T02:15:14;16.50;99.90
20141;DHT22;10231;47.702;9.826;2022-07-06T02:17:40;16.40;99.90
20141;DHT22;10231;47.702;9.826;2022-07-06T02:20:06;16.20;99.90
20141;DHT22;10231;47.702;9.826;2022-07-06T02:22:32;16.10;99.90
20141;DHT22;10231;47.702;9.826;2022-07-06T02:24:58;16.10;99.90
20141;DHT22;10231;47.702;9.826;2022-07-06T02:27:23;16.10;99.90
20141;DHT22;10231;47.702;9.826;2022-07-06T02:29:50;16.00;99.90
20141;DHT22;10231;47.702;9.826;2022-07-06T02:32:16;16.00;99.90
20141;DHT22;10231;47.702;9.826;2022-07-06T02:34:42;16.00;99.90
20141;DHT22;10231;47.702;9.826;2022-07-06T02:37:07;16.00;99.90
20141;DHT22;10231;47.702;9.826;2022-07-06T02:39:33;16.10;99.90
20141;DHT22;10231;47.702;9.826;2022-07-06T02:41:58;16.10;99.90
20141;DHT22;10231;47.702;9.826;2022-07-06T02:44:24;16.10;99.90
20141;DHT22;10231;47.702;9.826;2022-07-06T02:46:49;16.10;99.90
20141;DHT22;10231;47.702;9.826;2022-07-06T02:49:15;16.10;99.90
20141;DHT22;10231;47.702;9.826;2022-07-06T02:51:41;16.00;99.90
20141;DHT22;10231;47.702;9.826;2022-07-06T02:54:06;16.00;99.90
20141;DHT22;10231;47.702;9.826;2022-07-06T02:56:32;16.00;99.90
20141;DHT22;10231;47.702;9.826;2022-07-06T02:58:58;16.00;99.90
20141;DHT22;10231;47.702;9.826;2022-07-06T03:01:23;16.10;99.90
20141;DHT22;10231;47.702;9.826;2022-07-06T03:03:49;16.10;99.90
20141;DHT22;10231;47.702;9.826;2022-07-06T03:06:14;16.10;99.90
20141;DHT22;10231;47.702;9.826;2022-07-06T03:08:40;16.00;99.90
20141;DHT22;10231;47.702;9.826;2022-07-06T03:11:06;15.90;99.90
20141;DHT22;10231;47.702;9.826;2022-07-06T03:13:31;15.90;99.90
20141;DHT22;10231;47.702;9.826;2022-07-06T03:15:57;15.80;99.90
20141;DHT22;10231;47.702;9.826;2022-07-06T03:18:23;15.70;99.90
20141;DHT22;10231;47.702;9.826;2022-07-06T03:20:48;15.70;99.90
20141;DHT22;10231;47.702;9.826;2022-07-06T03:23:14;15.60;99.90
20141;DHT22;10231;47.702;9.826;2022-07-06T03:25:40;15.60;99.90
20141;DHT22;10231;47.702;9.826;2022-07-06T03:28:05;15.70;99.90
20141;DHT22;10231;47.702;9.826;2022-07-06T03:30:31;15.60;99.90
20141;DHT22;10231;47.702;9.826;2022-07-06T03:32:56;15.60;99.90
20141;DHT22;10231;47.702;9.826;2022-07-06T03:35:22;15.70;99.90
20141;DHT22;10231;47.702;9.826;2022-07-06T03:37:48;15.70;99.90
20141;DHT22;10231;47.702;9.826;2022-07-06T03:40:13;15.60;99.90
20141;DHT22;10231;47.702;9.826;2022-07-06T03:42:40;15.50;99.90
20141;DHT22;10231;47.702;9.826;2022-07-06T03:45:06;15.40;99.90
20141;DHT22;10231;47.702;9.826;2022-07-06T03:47:32;15.40;99.90
20141;DHT22;10231;47.702;9.826;2022-07-06T03:49:58;15.40;99.90
20141;DHT22;10231;47.702;9.826;2022-07-06T03:52:23;15.30;99.90
20141;DHT22;10231;47.702;9.826;2022-07-06T03:54:49;15.40;99.90
20141;DHT22;10231;47.702;9.826;2022-07-06T03:57:14;15.40;99.90
20141;DHT22;10231;47.702;9.826;2022-07-06T03:59:40;15.40;99.90
20141;DHT22;10231;47.702;9.826;2022-07-06T04:02:06;15.40;99.90
20141;DHT22;10231;47.702;9.826;2022-07-06T04:04:33;15.50;99.90
20141;DHT22;10231;47.702;9.826;2022-07-06T04:06:59;15.50;99.90
20141;DHT22;10231;47.702;9.826;2022-07-06T04:09:25;15.50;99.90
20141;DHT22;10231;47.702;9.826;2022-07-06T04:11:51;15.50;99.90
20141;DHT22;10231;47.702;9.826;2022-07-06T04:14:17;15.50;99.90
20141;DHT22;10231;47.702;9.826;2022-07-06T04:16:43;15.60;99.90
20141;DHT22;10231;47.702;9.826;2022-07-06T04:19:10;15.60;99.90
20141;DHT22;10231;47.702;9.826;2022-07-06T04:21:35;15.60;99.90
20141;DHT22;10231;47.702;9.826;2022-07-06T04:24:01;15.60;99.90
20141;DHT22;10231;47.702;9.826;2022-07-06T04:26:27;15.60;99.90
20141;DHT22;10231;47.702;9.826;2022-07-06T04:28:52;15.60;99.90
20141;DHT22;10231;47.702;9.826;2022-07-06T04:31:18;15.50;99.90
20141;DHT22;10231;47.702;9.826;2022-07-06T04:33:43;15.50;99.90
20141;DHT22;10231;47.702;9.826;2022-07-06T04:36:10;15.60;99.90
20141;DHT22;10231;47.702;9.826;2022-07-06T04:38:35;15.60;99.90
20141;DHT22;10231;47.702;9.826;2022-07-06T04:41:01;15.60;99.90
20141;DHT22;10231;47.702;9.826;2022-07-06T04:43:27;15.60;99.90
20141;DHT22;10231;47.702;9.826;2022-07-06T04:45:53;15.70;99.90
20141;DHT22;10231;47.702;9.826;2022-07-06T04:48:18;15.70;99.90
20141;DHT22;10231;47.702;9.826;2022-07-06T04:50:44;15.70;99.90
20141;DHT22;10231;47.702;9.826;2022-07-06T04:53:10;15.70;99.90
20141;DHT22;10231;47.702;9.826;2022-07-06T04:55:35;15.70;99.90
20141;DHT22;10231;47.702;9.826;2022-07-06T04:58:01;15.80;99.90
20141;DHT22;10231;47.702;9.826;2022-07-06T05:00:27;15.90;99.90
20141;DHT22;10231;47.702;9.826;2022-07-06T05:02:53;16.00;99.90
20141;DHT22;10231;47.702;9.826;2022-07-06T05:05:18;16.00;99.90
20141;DHT22;10231;47.702;9.826;2022-07-06T05:07:44;16.10;99.90
20141;DHT22;10231;47.702;9.826;2022-07-06T05:10:11;16.10;99.90
20141;DHT22;10231;47.702;9.826;2022-07-06T05:12:37;16.10;99.90
20141;DHT22;10231;47.702;9.826;2022-07-06T05:15:03;16.20;99.90
20141;DHT22;10231;47.702;9.826;2022-07-06T05:17:29;16.30;99.90
20141;DHT22;10231;47.702;9.826;2022-07-06T05:19:55;16.30;99.90
20141;DHT22;10231;47.702;9.826;2022-07-06T05:22:20;16.40;99.90
20141;DHT22;10231;47.702;9.826;2022-07-06T05:24:46;16.40;99.90
20141;DHT22;10231;47.702;9.826;2022-07-06T05:27:12;16.50;99.90
20141;DHT22;10231;47.702;9.826;2022-07-06T05:29:37;16.60;99.90
20141;DHT22;10231;47.702;9.826;2022-07-06T05:32:03;16.60;99.90
20141;DHT22;10231;47.702;9.826;2022-07-06T05:34:29;16.70;99.90
20141;DHT22;10231;47.702;9.826;2022-07-06T05:36:55;16.70;99.90
20141;DHT22;10231;47.702;9.826;2022-07-06T05:39:20;16.80;99.90
20141;DHT22;10231;47.702;9.826;2022-07-06T05:41:48;16.80;99.90
20141;DHT22;10231;47.702;9.826;2022-07-06T05:44:14;16.80;99.90
20141;DHT22;10231;47.702;9.826;2022-07-06T05:46:40;16.80;99.90
20141;DHT22;10231;47.702;9.826;2022-07-06T05:49:06;16.80;99.90
20141;DHT22;10231;47.702;9.826;2022-07-06T05:51:50;16.80;99.90
20141;DHT22;10231;47.702;9.826;2022-07-06T05:54:16;16.90;99.90
20141;DHT22;10231;47.702;9.826;2022-07-06T05:56:41;16.90;99.90
20141;DHT22;10231;47.702;9.826;2022-07-06T05:59:07;17.00;99.90
20141;DHT22;10231;47.702;9.826;2022-07-06T06:01:33;17.10;99.90
20141;DHT22;10231;47.702;9.826;2022-07-06T06:03:58;17.10;99.90
20141;DHT22;10231;47.702;9.826;2022-07-06T06:06:25;17.20;99.90
20141;DHT22;10231;47.702;9.826;2022-07-06T06:08:51;17.30;99.90
20141;DHT22;10231;47.702;9.826;2022-07-06T06:11:17;17.40;99.90
20141;DHT22;10231;47.702;9.826;2022-07-06T06:13:42;17.40;99.90
20141;DHT22;10231;47.702;9.826;2022-07-06T06:16:08;17.50;99.90
20141;DHT22;10231;47.702;9.826;2022-07-06T06:18:34;17.50;99.90
20141;DHT22;10231;47.702;9.826;2022-07-06T06:20:59;17.70;99.90
20141;DHT22;10231;47.702;9.826;2022-07-06T06:23:25;17.70;99.90
20141;DHT22;10231;47.702;9.826;2022-07-06T06:25:51;17.70;99.90
20141;DHT22;10231;47.702;9.826;2022-07-06T06:28:16;17.80;99.90
20141;DHT22;10231;47.702;9.826;2022-07-06T06:30:42;17.80;99.90
20141;DHT22;10231;47.702;9.826;2022-07-06T06:33:12;17.90;99.90
20141;DHT22;10231;47.702;9.826;2022-07-06T06:35:49;18.00;99.90
20141;DHT22;10231;47.702;9.826;2022-07-06T06:38:16;18.00;99.90
20141;DHT22;10231;47.702;9.826;2022-07-06T06:40:42;18.10;99.90
20141;DHT22;10231;47.702;9.826;2022-07-06T06:43:08;18.20;99.90
20141;DHT22;10231;47.702;9.826;2022-07-06T06:45:35;18.10;99.90
20141;DHT22;10231;47.702;9.826;2022-07-06T06:48:00;18.30;99.90
20141;DHT22;10231;47.702;9.826;2022-07-06T06:50:26;18.20;99.90
20141;DHT22;10231;47.702;9.826;2022-07-06T06:52:52;18.20;99.90
20141;DHT22;10231;47.702;9.826;2022-07-06T06:55:18;18.10;99.90
20141;DHT22;10231;47.702;9.826;2022-07-06T06:57:44;18.10;99.90
20141;DHT22;10231;47.702;9.826;2022-07-06T07:00:10;18.20;99.90
20141;DHT22;10231;47.702;9.826;2022-07-06T07:02:36;18.20;99.90
20141;DHT22;10231;47.702;9.826;2022-07-06T07:05:03;18.20;99.90
20141;DHT22;10231;47.702;9.826;2022-07-06T07:07:28;18.20;99.90
20141;DHT22;10231;47.702;9.826;2022-07-06T07:09:54;18.20;99.90
20141;DHT22;10231;47.702;9.826;2022-07-06T07:12:20;18.30;99.90
20141;DHT22;10231;47.702;9.826;2022-07-06T07:14:45;18.30;99.90
20141;DHT22;10231;47.702;9.826;2022-07-06T07:17:11;18.30;99.90
20141;DHT22;10231;47.702;9.826;2022-07-06T07:19:38;18.40;99.90
20141;DHT22;10231;47.702;9.826;2022-07-06T07:22:04;18.40;99.90
20141;DHT22;10231;47.702;9.826;2022-07-06T07:24:30;18.40;99.90
20141;DHT22;10231;47.702;9.826;2022-07-06T07:26:56;18.40;99.90
20141;DHT22;10231;47.702;9.826;2022-07-06T07:29:21;18.50;99.90
20141;DHT22;10231;47.702;9.826;2022-07-06T07:31:47;18.50;99.90
20141;DHT22;10231;47.702;9.826;2022-07-06T07:34:13;18.50;99.90
20141;DHT22;10231;47.702;9.826;2022-07-06T07:36:38;18.60;99.90
20141;DHT22;10231;47.702;9.826;2022-07-06T07:39:04;18.70;99.90
20141;DHT22;10231;47.702;9.826;2022-07-06T07:41:30;18.70;99.90
20141;DHT22;10231;47.702;9.826;2022-07-06T07:43:56;18.80;99.90
20141;DHT22;10231;47.702;9.826;2022-07-06T07:46:21;18.80;99.90
20141;DHT22;10231;47.702;9.826;2022-07-06T07:48:47;18.90;99.90
20141;DHT22;10231;47.702;9.826;2022-07-06T07:51:13;18.90;99.90
20141;DHT22;10231;47.702;9.826;2022-07-06T07:53:38;18.90;99.90
20141;DHT22;10231;47.702;9.826;2022-07-06T07:56:04;19.00;99.90
20141;DHT22;10231;47.702;9.826;2022-07-06T07:58:30;19.00;99.90
20141;DHT22;10231;47.702;9.826;2022-07-06T08:00:56;19.10;99.90
20141;DHT22;10231;47.702;9.826;2022-07-06T08:03:21;19.20;99.90
20141;DHT22;10231;47.702;9.826;2022-07-06T08:05:47;19.20;99.90
20141;DHT22;10231;47.702;9.826;2022-07-06T08:08:14;19.20;99.90
20141;DHT22;10231;47.702;9.826;2022-07-06T08:10:40;19.20;99.90
20141;DHT22;10231;47.702;9.826;2022-07-06T08:13:05;19.20;99.90
20141;DHT22;10231;47.702;9.826;2022-07-06T08:15:35;19.20;99.90
20141;DHT22;10231;47.702;9.826;2022-07-06T08:18:01;19.20;99.90
20141;DHT22;10231;47.702;9.826;2022-07-06T08:20:27;19.30;99.90
20141;DHT22;10231;47.702;9.826;2022-07-06T08:22:53;19.30;99.90
20141;DHT22;10231;47.702;9.826;2022-07-06T08:25:18;19.40;99.90
20141;DHT22;10231;47.702;9.826;2022-07-06T08:27:44;19.40;99.90
20141;DHT22;10231;47.702;9.826;2022-07-06T08:30:10;19.40;99.90
20141;DHT22;10231;47.702;9.826;2022-07-06T08:32:38;19.40;99.90
20141;DHT22;10231;47.702;9.826;2022-07-06T08:35:05;19.40;99.90
20141;DHT22;10231;47.702;9.826;2022-07-06T08:37:30;19.50;99.90
20141;DHT22;10231;47.702;9.826;2022-07-06T08:39:56;19.50;99.90
20141;DHT22;10231;47.702;9.826;2022-07-06T08:42:25;19.60;99.90
20141;DHT22;10231;47.702;9.826;2022-07-06T08:44:55;19.70;99.90
20141;DHT22;10231;47.702;9.826;2022-07-06T08:47:26;19.70;99.90
20141;DHT22;10231;47.702;9.826;2022-07-06T08:49:52;19.60;99.90
20141;DHT22;10231;47.702;9.826;2022-07-06T08:52:18;19.70;99.90
20141;DHT22;10231;47.702;9.826;2022-07-06T08:54:44;19.70;99.90
20141;DHT22;10231;47.702;9.826;2022-07-06T08:57:10;19.70;99.90
20141;DHT22;10231;47.702;9.826;2022-07-06T08:59:36;19.80;99.90
20141;DHT22;10231;47.702;9.826;2022-07-06T09:02:03;19.80;99.90
20141;DHT22;10231;47.702;9.826;2022-07-06T09:04:29;19.90;99.90
20141;DHT22;10231;47.702;9.826;2022-07-06T09:06:56;19.90;99.90
20141;DHT22;10231;47.702;9.826;2022-07-06T09:09:23;19.90;99.90
20141;DHT22;10231;47.702;9.826;2022-07-06T09:11:50;20.00;99.90
20141;DHT22;10231;47.702;9.826;2022-07-06T09:14:16;20.00;99.90
20141;DHT22;10231;47.702;9.826;2022-07-06T09:16:42;20.20;99.90
20141;DHT22;10231;47.702;9.826;2022-07-06T09:19:11;20.20;99.90
20141;DHT22;10231;47.702;9.826;2022-07-06T09:21:37;20.20;99.90
20141;DHT22;10231;47.702;9.826;2022-07-06T09:24:06;20.30;99.90
20141;DHT22;10231;47.702;9.826;2022-07-06T09:26:32;20.40;99.90
20141;DHT22;10231;47.702;9.826;2022-07-06T09:28:59;20.50;99.90
20141;DHT22;10231;47.702;9.826;2022-07-06T09:31:25;20.50;99.90
20141;DHT22;10231;47.702;9.826;2022-07-06T09:34:05;20.60;99.90
20141;DHT22;10231;47.702;9.826;2022-07-06T09:36:49;20.60;99.90
20141;DHT22;10231;47.702;9.826;2022-07-06T09:41:40;20.70;99.90
20141;DHT22;10231;47.702;9.826;2022-07-06T09:44:06;20.80;99.90
20141;DHT22;10231;47.702;9.826;2022-07-06T09:46:45;20.80;99.90
20141;DHT22;10231;47.702;9.826;2022-07-06T09:49:11;20.80;99.90
20141;DHT22;10231;47.702;9.826;2022-07-06T09:51:38;20.80;99.90
20141;DHT22;10231;47.702;9.826;2022-07-06T09:54:06;20.90;99.90
20141;DHT22;10231;47.702;9.826;2022-07-06T09:56:36;20.90;99.90
20141;DHT22;10231;47.702;9.826;2022-07-06T09:59:08;20.90;99.90
20141;DHT22;10231;47.702;9.826;2022-07-06T10:01:35;21.00;99.90
20141;DHT22;10231;47.702;9.826;2022-07-06T10:04:01;20.90;99.90
20141;DHT22;10231;47.702;9.826;2022-07-06T10:06:26;20.90;99.90
20141;DHT22;10231;47.702;9.826;2022-07-06T10:08:54;21.00;99.90
20141;DHT22;10231;47.702;9.826;2022-07-06T10:11:21;20.90;99.90
20141;DHT22;10231;47.702;9.826;2022-07-06T10:13:48;21.00;99.90
20141;DHT22;10231;47.702;9.826;2022-07-06T10:16:14;21.00;99.90
20141;DHT22;10231;47.702;9.826;2022-07-06T10:18:40;21.10;99.90
20141;DHT22;10231;47.702;9.826;2022-07-06T10:21:06;21.10;99.90
20141;DHT22;10231;47.702;9.826;2022-07-06T10:23:34;21.10;99.90
20141;DHT22;10231;47.702;9.826;2022-07-06T10:26:01;21.10;99.90
20141;DHT22;10231;47.702;9.826;2022-07-06T10:28:29;21.10;99.90
20141;DHT22;10231;47.702;9.826;2022-07-06T10:30:55;21.10;99.90
20141;DHT22;10231;47.702;9.826;2022-07-06T10:33:22;21.10;99.90
20141;DHT22;10231;47.702;9.826;2022-07-06T10:35:49;21.10;99.90
20141;DHT22;10231;47.702;9.826;2022-07-06T10:38:15;21.10;99.90
20141;DHT22;10231;47.702;9.826;2022-07-06T10:40:41;21.10;99.90
20141;DHT22;10231;47.702;9.826;2022-07-06T10:43:36;21.20;99.90
20141;DHT22;10231;47.702;9.826;2022-07-06T10:46:07;21.40;99.90
20141;DHT22;10231;47.702;9.826;2022-07-06T10:48:43;21.40;99.90
20141;DHT22;10231;47.702;9.826;2022-07-06T10:51:25;21.40;99.90
20141;DHT22;10231;47.702;9.826;2022-07-06T10:53:59;21.40;99.90
20141;DHT22;10231;47.702;9.826;2022-07-06T10:56:37;21.60;99.90
20141;DHT22;10231;47.702;9.826;2022-07-06T10:59:10;21.70;99.90
20141;DHT22;10231;47.702;9.826;2022-07-06T11:01:39;21.70;99.90
20141;DHT22;10231;47.702;9.826;2022-07-06T11:04:06;21.80;99.90
20141;DHT22;10231;47.702;9.826;2022-07-06T11:06:34;21.70;99.90
20141;DHT22;10231;47.702;9.826;2022-07-06T11:09:01;21.70;99.90
20141;DHT22;10231;47.702;9.826;2022-07-06T11:14:14;21.60;99.90
20141;DHT22;10231;47.702;9.826;2022-07-06T11:21:44;21.90;99.90
20141;DHT22;10231;47.702;9.826;2022-07-06T11:24:16;21.90;99.90
20141;DHT22;10231;47.702;9.826;2022-07-06T11:26:45;22.10;99.90
20141;DHT22;10231;47.702;9.826;2022-07-06T11:29:12;22.10;99.90
20141;DHT22;10231;47.702;9.826;2022-07-06T11:31:40;22.20;99.90
20141;DHT22;10231;47.702;9.826;2022-07-06T11:34:07;22.40;99.70
20141;DHT22;10231;47.702;9.826;2022-07-06T11:36:33;22.40;99.90
20141;DHT22;10231;47.702;9.826;2022-07-06T11:38:59;22.50;99.90
20141;DHT22;10231;47.702;9.826;2022-07-06T11:41:25;22.50;99.20
20141;DHT22;10231;47.702;9.826;2022-07-06T11:43:50;22.60;99.40
20141;DHT22;10231;47.702;9.826;2022-07-06T11:46:31;22.70;99.90
20141;DHT22;10231;47.702;9.826;2022-07-06T11:48:59;22.70;97.30
20141;DHT22;10231;47.702;9.826;2022-07-06T11:51:27;22.70;97.00
20141;DHT22;10231;47.702;9.826;2022-07-06T11:53:55;22.70;96.50
20141;DHT22;10231;47.702;9.826;2022-07-06T11:56:22;22.60;97.10
20141;DHT22;10231;47.702;9.826;2022-07-06T11:58:51;22.60;97.90
20141;DHT22;10231;47.702;9.826;2022-07-06T12:01:17;22.70;98.10
20141;DHT22;10231;47.702;9.826;2022-07-06T12:03:44;22.70;96.60
20141;DHT22;10231;47.702;9.826;2022-07-06T12:06:21;22.80;96.80
20141;DHT22;10231;47.702;9.826;2022-07-06T12:08:52;22.90;96.60
20141;DHT22;10231;47.702;9.826;2022-07-06T12:13:49;22.90;96.00
20141;DHT22;10231;47.702;9.826;2022-07-06T12:16:15;23.00;96.50
20141;DHT22;10231;47.702;9.826;2022-07-06T12:18:43;23.00;96.00
20141;DHT22;10231;47.702;9.826;2022-07-06T12:21:10;23.00;97.20
20141;DHT22;10231;47.702;9.826;2022-07-06T12:23:45;23.10;97.80
20141;DHT22;10231;47.702;9.826;2022-07-06T12:26:12;23.20;96.60
20141;DHT22;10231;47.702;9.826;2022-07-06T12:28:38;23.20;96.50
20141;DHT22;10231;47.702;9.826;2022-07-06T12:31:04;23.30;96.60
20141;DHT22;10231;47.702;9.826;2022-07-06T12:33:30;23.30;97.00
20141;DHT22;10231;47.702;9.826;2022-07-06T12:35:56;23.50;97.40
20141;DHT22;10231;47.702;9.826;2022-07-06T12:38:26;23.50;96.70
20141;DHT22;10231;47.702;9.826;2022-07-06T12:40:55;23.40;97.20
20141;DHT22;10231;47.702;9.826;2022-07-06T12:43:40;23.40;97.30
20141;DHT22;10231;47.702;9.826;2022-07-06T12:46:32;23.50;97.80
20141;DHT22;10231;47.702;9.826;2022-07-06T12:49:01;23.70;96.70
20141;DHT22;10231;47.702;9.826;2022-07-06T12:51:27;23.70;96.50
20141;DHT22;10231;47.702;9.826;2022-07-06T12:54:11;23.90;96.00
20141;DHT22;10231;47.702;9.826;2022-07-06T12:56:36;23.90;96.50
20141;DHT22;10231;47.702;9.826;2022-07-06T12:59:02;23.90;96.40
20141;DHT22;10231;47.702;9.826;2022-07-06T13:01:28;24.10;96.20
20141;DHT22;10231;47.702;9.826;2022-07-06T13:03:57;24.20;96.30
20141;DHT22;10231;47.702;9.826;2022-07-06T13:06:30;24.30;95.90
20141;DHT22;10231;47.702;9.826;2022-07-06T13:08:56;24.40;94.40
20141;DHT22;10231;47.702;9.826;2022-07-06T13:11:22;24.30;94.00
20141;DHT22;10231;47.702;9.826;2022-07-06T13:13:47;24.40;94.70
20141;DHT22;10231;47.702;9.826;2022-07-06T13:16:13;24.40;92.90
20141;DHT22;10231;47.702;9.826;2022-07-06T13:18:38;24.50;92.20
20141;DHT22;10231;47.702;9.826;2022-07-06T13:21:04;24.60;93.60
20141;DHT22;10231;47.702;9.826;2022-07-06T13:23:29;24.60;93.70
20141;DHT22;10231;47.702;9.826;2022-07-06T13:25:55;24.60;95.10
20141;DHT22;10231;47.702;9.826;2022-07-06T13:28:21;24.70;94.30
20141;DHT22;10231;47.702;9.826;2022-07-06T13:30:46;24.70;93.70
20141;DHT22;10231;47.702;9.826;2022-07-06T13:33:12;24.70;92.40
20141;DHT22;10231;47.702;9.826;2022-07-06T13:35:37;24.70;92.10
20141;DHT22;10231;47.702;9.826;2022-07-06T13:38:03;24.80;93.60
20141;DHT22;10231;47.702;9.826;2022-07-06T13:40:29;24.80;91.30
20141;DHT22;10231;47.702;9.826;2022-07-06T13:42:54;24.80;91.90
20141;DHT22;10231;47.702;9.826;2022-07-06T13:45:20;24.90;92.30
20141;DHT22;10231;47.702;9.826;2022-07-06T13:47:45;25.00;91.60
20141;DHT22;10231;47.702;9.826;2022-07-06T13:50:12;25.10;92.30
20141;DHT22;10231;47.702;9.826;2022-07-06T13:52:37;25.30;91.00
20141;DHT22;10231;47.702;9.826;2022-07-06T13:55:04;25.30;92.70
20141;DHT22;10231;47.702;9.826;2022-07-06T13:57:31;25.40;90.80
20141;DHT22;10231;47.702;9.826;2022-07-06T13:59:57;25.30;91.50
20141;DHT22;10231;47.702;9.826;2022-07-06T14:02:22;25.30;90.50
20141;DHT22;10231;47.702;9.826;2022-07-06T14:04:48;25.30;91.20
20141;DHT22;10231;47.702;9.826;2022-07-06T14:07:14;25.40;92.20
20141;DHT22;10231;47.702;9.826;2022-07-06T14:09:39;25.60;91.50
20141;DHT22;10231;47.702;9.826;2022-07-06T14:12:05;25.80;91.30
20141;DHT22;10231;47.702;9.826;2022-07-06T14:14:31;25.90;91.40
20141;DHT22;10231;47.702;9.826;2022-07-06T14:16:57;26.00;90.00
20141;DHT22;10231;47.702;9.826;2022-07-06T14:19:23;25.90;89.50
20141;DHT22;10231;47.702;9.826;2022-07-06T14:21:49;26.00;89.10
20141;DHT22;10231;47.702;9.826;2022-07-06T14:24:15;25.90;89.10
20141;DHT22;10231;47.702;9.826;2022-07-06T14:26:41;26.00;88.60
20141;DHT22;10231;47.702;9.826;2022-07-06T14:29:07;25.90;90.30
20141;DHT22;10231;47.702;9.826;2022-07-06T14:31:33;26.00;87.00
20141;DHT22;10231;47.702;9.826;2022-07-06T14:33:58;26.00;86.30
20141;DHT22;10231;47.702;9.826;2022-07-06T14:36:24;25.90;86.90
20141;DHT22;10231;47.702;9.826;2022-07-06T14:38:49;25.80;84.40
20141;DHT22;10231;47.702;9.826;2022-07-06T14:41:15;25.70;84.60
20141;DHT22;10231;47.702;9.826;2022-07-06T14:43:41;25.80;84.10
20141;DHT22;10231;47.702;9.826;2022-07-06T14:46:06;25.80;83.50
20141;DHT22;10231;47.702;9.826;2022-07-06T14:48:32;25.90;83.30
20141;DHT22;10231;47.702;9.826;2022-07-06T14:50:58;25.70;83.50
20141;DHT22;10231;47.702;9.826;2022-07-06T14:53:23;25.70;84.10
20141;DHT22;10231;47.702;9.826;2022-07-06T14:55:49;25.80;85.50
20141;DHT22;10231;47.702;9.826;2022-07-06T14:58:14;26.00;85.00
20141;DHT22;10231;47.702;9.826;2022-07-06T15:00:44;26.20;82.30
20141;DHT22;10231;47.702;9.826;2022-07-06T15:03:09;26.20;85.00
20141;DHT22;10231;47.702;9.826;2022-07-06T15:05:36;26.40;88.40
20141;DHT22;10231;47.702;9.826;2022-07-06T15:08:02;26.60;89.30
20141;DHT22;10231;47.702;9.826;2022-07-06T15:10:27;26.80;87.70
20141;DHT22;10231;47.702;9.826;2022-07-06T15:12:53;26.80;83.70
20141;DHT22;10231;47.702;9.826;2022-07-06T15:15:19;26.90;83.80
20141;DHT22;10231;47.702;9.826;2022-07-06T15:17:44;26.60;81.90
20141;DHT22;10231;47.702;9.826;2022-07-06T15:20:10;26.30;83.20
20141;DHT22;10231;47.702;9.826;2022-07-06T15:22:37;26.00;84.20
20141;DHT22;10231;47.702;9.826;2022-07-06T15:25:03;25.90;87.00
20141;DHT22;10231;47.702;9.826;2022-07-06T15:27:29;26.00;87.30
20141;DHT22;10231;47.702;9.826;2022-07-06T15:29:55;26.20;85.30
20141;DHT22;10231;47.702;9.826;2022-07-06T15:32:21;26.40;85.60
20141;DHT22;10231;47.702;9.826;2022-07-06T15:34:48;26.60;85.90
20141;DHT22;10231;47.702;9.826;2022-07-06T15:37:14;26.70;85.00
20141;DHT22;10231;47.702;9.826;2022-07-06T15:39:39;26.70;81.10